createdAt,value
2018-08-17T00:37:29.966Z,24.2
2018-08-17T00:38:19.702Z,24.3
2018-08-17T00:39:10.315Z,24.3
2018-08-17T00:39:59.261Z,24.3
2018-08-17T00:40:49.659Z,24.3
2018-08-17T00:41:40.269Z,24.2
2018-08-17T00:42:30.088Z,24.3
2018-08-17T00:43:19.839Z,24.3
2018-08-17T00:44:10.648Z,24.3
2018-08-17T00:45:00.725Z,24.3
2018-08-17T00:45:50.754Z,24.3
2018-08-17T00:46:40.844Z,24.3
2018-08-17T00:47:30.894Z,24.3
2018-08-17T00:48:19.857Z,24.2
2018-08-17T00:49:10.727Z,24.3
2018-08-17T00:50:00.510Z,24.3
2018-08-17T00:50:50.610Z,24.3
2018-08-17T00:51:40.967Z,24.3
2018-08-17T00:52:31.317Z,24.2
2018-08-17T00:53:21.468Z,24.3
2018-08-17T00:54:11.155Z,24.3
2018-08-17T00:55:01.225Z,24.3
2018-08-17T00:55:51.342Z,24.3
2018-08-17T00:56:41.621Z,24.3
2018-08-17T00:57:31.995Z,24.3
2018-08-17T00:58:22.082Z,24.3
2018-08-17T00:59:11.302Z,24.3
2018-08-17T01:00:01.315Z,24.3
2018-08-17T01:00:51.919Z,24.3
2018-08-17T01:01:41.984Z,24.3
2018-08-17T01:02:31.504Z,24.3
2018-08-17T01:03:22.157Z,24.2
2018-08-17T01:04:12.485Z,24.3
2018-08-17T01:05:02.232Z,24.3
2018-08-17T01:05:52.257Z,24.2
2018-08-17T01:06:42.124Z,24.3
2018-08-17T01:07:32.422Z,24.3
2018-08-17T01:08:22.488Z,24.3
2018-08-17T01:09:12.828Z,24.3
2018-08-17T01:10:02.621Z,24.3
2018-08-17T01:10:52.681Z,24.3
2018-08-17T01:11:42.579Z,24.3
2018-08-17T01:12:32.266Z,24.2
2018-08-17T01:13:23.162Z,24.3
2018-08-17T01:14:13.238Z,24.3
2018-08-17T01:15:03.017Z,24.3
2018-08-17T01:15:52.811Z,24.3
2018-08-17T01:16:43.116Z,24.3
2018-08-17T01:17:33.462Z,24.3
2018-08-17T01:18:22.766Z,24.3
2018-08-17T01:19:13.584Z,24.3
2018-08-17T01:20:03.665Z,24.3
2018-08-17T01:20:53.474Z,24.3
2018-08-17T01:21:43.229Z,24.3
2018-08-17T01:22:33.913Z,24.2
2018-08-17T01:23:23.655Z,24.3
2018-08-17T01:24:13.783Z,24.3
2018-08-17T01:25:04.117Z,24.3
2018-08-17T01:25:54.155Z,24.3
2018-08-17T01:26:43.425Z,24.3
2018-08-17T01:27:33.992Z,24.3
2018-08-17T01:28:24.070Z,24.3
2018-08-17T01:29:14.197Z,24.3
2018-08-17T01:30:04.467Z,24.2
2018-08-17T01:30:54.318Z,24.3
2018-08-17T01:31:44.584Z,24.3
2018-08-17T01:32:33.564Z,24.3
2018-08-17T01:33:24.187Z,24.3
2018-08-17T01:34:14.015Z,24.3
2018-08-17T01:35:04.311Z,24.3
2018-08-17T01:35:54.103Z,24.3
2018-08-17T01:36:44.421Z,24.3
2018-08-17T01:37:34.788Z,24.3
2018-08-17T01:38:24.881Z,24.3
2018-08-17T01:39:14.624Z,24.3
2018-08-17T01:40:04.932Z,24.3
2018-08-17T01:40:55.053Z,24.3
2018-08-17T01:41:45.340Z,24.3
2018-08-17T01:42:35.150Z,24.3
2018-08-17T01:43:25.514Z,24.3
2018-08-17T01:44:15.290Z,24.3
2018-08-17T01:45:04.936Z,24.3
2018-08-17T01:45:55.411Z,24.3
2018-08-17T01:46:45.235Z,24.3
2018-08-17T01:47:35.254Z,24.3
2018-08-17T01:48:25.329Z,24.3
2018-08-17T01:49:15.931Z,24.3
2018-08-17T01:50:05.725Z,24.3
2018-08-17T01:50:55.538Z,24.3
2018-08-17T01:51:45.905Z,24.3
2018-08-17T01:52:35.943Z,24.3
2018-08-17T01:53:25.463Z,24.3
2018-08-17T01:54:16.333Z,24.3
2018-08-17T01:55:06.143Z,24.3
2018-08-17T01:55:56.453Z,24.3
2018-08-17T01:56:45.701Z,24.3
2018-08-17T01:57:35.764Z,24.3
2018-08-17T01:58:25.603Z,24.3
2018-08-17T01:59:16.533Z,24.3
2018-08-17T02:00:06.260Z,24.3
2018-08-17T02:00:56.020Z,24.3
2018-08-17T02:01:46.970Z,24.3
2018-08-17T02:02:36.155Z,24.3
2018-08-17T02:03:26.250Z,24.3
2018-08-17T02:04:16.932Z,24.3
2018-08-17T02:05:06.896Z,24.3
2018-08-17T02:05:56.980Z,24.3
2018-08-17T02:06:46.771Z,24.3
2018-08-17T02:07:36.575Z,24.3
2018-08-17T02:08:27.160Z,24.3
2018-08-17T02:09:16.771Z,24.3
2018-08-17T02:10:07.298Z,24.3
2018-08-17T02:10:56.816Z,24.3
2018-08-17T02:11:47.437Z,24.3
2018-08-17T02:12:37.291Z,24.3
2018-08-17T02:13:27.281Z,24.3
2018-08-17T02:14:17.073Z,24.3
2018-08-17T02:15:07.411Z,24.3
2018-08-17T02:15:57.744Z,24.3
2018-08-17T02:16:47.259Z,24.3
2018-08-17T02:17:37.864Z,24.3
2018-08-17T02:18:27.369Z,24.3
2018-08-17T02:19:17.681Z,24.3
2018-08-17T02:20:07.817Z,24.3
2018-08-17T02:20:57.565Z,24.3
2018-08-17T02:21:47.909Z,24.3
2018-08-17T02:22:38.508Z,24.3
2018-08-17T02:23:28.046Z,24.3
2018-08-17T02:24:18.317Z,24.3
2018-08-17T02:25:07.623Z,24.3
2018-08-17T02:25:58.508Z,24.3
2018-08-17T02:26:48.843Z,24.3
2018-08-17T02:27:38.916Z,24.3
2018-08-17T02:28:28.976Z,24.3
2018-08-17T02:29:18.226Z,24.3
2018-08-17T02:30:08.288Z,24.3
2018-08-17T02:30:58.923Z,24.3
2018-08-17T02:31:48.673Z,24.3
2018-08-17T02:32:38.771Z,24.3
2018-08-17T02:33:28.576Z,24.3
2018-08-17T02:34:18.934Z,24.3
2018-08-17T02:35:09.527Z,24.3
2018-08-17T02:35:59.319Z,24.3
2018-08-17T02:36:49.684Z,24.3
2018-08-17T02:37:39.172Z,24.3
2018-08-17T02:38:29.857Z,24.3
2018-08-17T02:39:19.948Z,24.3
2018-08-17T02:40:09.360Z,24.3
2018-08-17T02:40:59.781Z,24.3
2018-08-17T02:41:49.779Z,24.3
2018-08-17T02:42:39.545Z,24.3
2018-08-17T02:43:30.228Z,24.3
2018-08-17T02:44:19.403Z,24.3
2018-08-17T02:45:10.001Z,24.3
2018-08-17T02:45:59.852Z,24.3
2018-08-17T02:46:50.434Z,24.3
2018-08-17T02:47:39.964Z,24.3
2018-08-17T02:48:30.302Z,24.3
2018-08-17T02:49:20.689Z,24.3
2018-08-17T02:50:10.146Z,24.3
2018-08-17T02:51:00.464Z,24.3
2018-08-17T02:51:50.258Z,24.3
2018-08-17T02:52:40.642Z,24.3
2018-08-17T02:53:30.383Z,24.3
2018-08-17T02:54:20.719Z,24.3
2018-08-17T02:55:10.624Z,24.3
2018-08-17T02:56:00.875Z,24.3
2018-08-17T02:56:50.941Z,24.3
2018-08-17T02:57:40.429Z,24.3
2018-08-17T02:58:31.068Z,24.3
2018-08-17T02:59:21.273Z,24.3
2018-08-17T03:00:10.672Z,24.3
2018-08-17T03:01:01.312Z,24.3
2018-08-17T03:01:51.598Z,24.3
2018-08-17T03:02:40.806Z,24.3
2018-08-17T03:03:30.896Z,24.3
2018-08-17T03:04:21.481Z,24.3
2018-08-17T03:05:11.326Z,24.3
2018-08-17T03:06:01.085Z,24.3
2018-08-17T03:06:51.171Z,24.3
2018-08-17T03:07:40.915Z,24.3
2018-08-17T03:08:31.815Z,24.3
2018-08-17T03:09:21.599Z,24.3
2018-08-17T03:10:12.001Z,24.3
2018-08-17T03:11:02.103Z,24.3
2018-08-17T03:11:52.183Z,24.3
2018-08-17T03:12:41.856Z,24.3
2018-08-17T03:13:32.007Z,24.3
2018-08-17T03:14:22.318Z,24.3
2018-08-17T03:15:12.669Z,24.3
2018-08-17T03:16:02.453Z,24.3
2018-08-17T03:16:52.272Z,24.3
2018-08-17T03:17:42.859Z,24.3
2018-08-17T03:18:32.379Z,24.3
2018-08-17T03:19:22.719Z,24.3
2018-08-17T03:20:13.025Z,24.3
2018-08-17T03:21:02.847Z,24.3
2018-08-17T03:21:52.503Z,24.3
2018-08-17T03:22:42.192Z,24.3
2018-08-17T03:23:33.295Z,24.3
2018-08-17T03:24:23.081Z,24.3
2018-08-17T03:25:27.903Z,24.3
2018-08-17T03:26:03.264Z,24.3
2018-08-17T03:26:52.952Z,24.3
2018-08-17T03:27:43.586Z,24.3
2018-08-17T03:28:33.352Z,24.3
2018-08-17T03:29:23.663Z,24.3
2018-08-17T03:30:12.662Z,24.3
2018-08-17T03:31:03.724Z,24.3
2018-08-17T03:31:53.895Z,24.3
2018-08-17T03:32:43.399Z,24.3
2018-08-17T03:33:34.006Z,24.3
2018-08-17T03:34:24.088Z,24.3
2018-08-17T03:35:13.596Z,24.3
2018-08-17T03:36:03.982Z,24.3
2018-08-17T03:36:54.276Z,24.3
2018-08-17T03:37:44.331Z,24.3
2018-08-17T03:38:33.840Z,24.3
2018-08-17T03:39:23.910Z,24.3
2018-08-17T03:40:14.248Z,24.3
2018-08-17T03:41:04.318Z,24.3
2018-08-17T03:41:54.457Z,24.3
2018-08-17T03:42:44.497Z,24.4
2018-08-17T03:43:34.805Z,24.3
2018-08-17T03:44:24.351Z,24.3
2018-08-17T03:45:14.148Z,24.3
2018-08-17T03:46:04.733Z,24.3
2018-08-17T03:46:55.102Z,24.3
2018-08-17T03:47:44.903Z,24.3
2018-08-17T03:48:35.224Z,24.3
2018-08-17T03:49:24.500Z,24.3
2018-08-17T03:50:15.059Z,24.3
2018-08-17T03:51:05.407Z,24.3
2018-08-17T03:51:55.466Z,24.3
2018-08-17T03:52:45.269Z,24.3
2018-08-17T03:53:35.361Z,24.3
2018-08-17T03:54:25.693Z,24.3
2018-08-17T03:55:15.200Z,24.3
2018-08-17T03:56:05.813Z,24.4
2018-08-17T03:56:55.906Z,24.4
2018-08-17T03:57:44.841Z,24.3
2018-08-17T03:58:35.161Z,24.3
2018-08-17T03:59:25.510Z,24.3
2018-08-17T04:00:15.835Z,24.3
2018-08-17T04:01:05.911Z,24.3
2018-08-17T04:01:56.023Z,24.3
2018-08-17T04:02:45.716Z,24.4
2018-08-17T04:03:35.781Z,24.3
2018-08-17T04:04:25.844Z,24.4
2018-08-17T04:05:16.453Z,24.3
2018-08-17T04:06:06.569Z,24.4
2018-08-17T04:06:56.046Z,24.3
2018-08-17T04:07:46.426Z,24.3
2018-08-17T04:08:36.461Z,24.4
2018-08-17T04:09:26.266Z,24.4
2018-08-17T04:10:16.140Z,24.3
2018-08-17T04:11:05.871Z,24.4
2018-08-17T04:11:55.686Z,24.4
2018-08-17T04:12:45.904Z,24.4
2018-08-17T04:13:36.397Z,24.4
2018-08-17T04:14:26.478Z,24.4
2018-08-17T04:15:16.489Z,24.4
2018-08-17T04:16:06.833Z,24.4
2018-08-17T04:16:56.881Z,24.3
2018-08-17T04:17:46.987Z,24.4
2018-08-17T04:18:37.013Z,24.4
2018-08-17T04:19:27.020Z,24.4
2018-08-17T04:20:17.677Z,24.4
2018-08-17T04:21:07.740Z,24.4
2018-08-17T04:21:57.843Z,24.4
2018-08-17T04:22:47.620Z,24.4
2018-08-17T04:23:37.955Z,24.4
2018-08-17T04:24:27.492Z,24.3
2018-08-17T04:25:18.092Z,24.4
2018-08-17T04:26:07.851Z,24.4
2018-08-17T04:26:57.931Z,24.4
2018-08-17T04:27:47.223Z,24.4
2018-08-17T04:28:37.585Z,24.4
2018-08-17T04:29:27.899Z,24.4
2018-08-17T04:30:17.993Z,24.4
2018-08-17T04:31:07.737Z,24.4
2018-08-17T04:31:57.247Z,24.4
2018-08-17T04:32:48.139Z,24.4
2018-08-17T04:33:37.937Z,24.4
2018-08-17T04:34:27.460Z,24.4
2018-08-17T04:35:18.046Z,24.3
2018-08-17T04:36:08.928Z,24.4
2018-08-17T04:36:58.402Z,24.4
2018-08-17T04:37:48.184Z,24.4
2018-08-17T04:38:39.034Z,24.4
2018-08-17T04:39:29.148Z,24.4
2018-08-17T04:40:19.165Z,24.4
2018-08-17T04:41:08.804Z,24.4
2018-08-17T04:41:59.023Z,24.4
2018-08-17T04:42:48.608Z,24.4
2018-08-17T04:43:39.005Z,24.4
2018-08-17T04:44:28.482Z,24.4
2018-08-17T04:45:18.595Z,24.4
2018-08-17T04:46:08.863Z,24.4
2018-08-17T04:46:58.818Z,24.4
2018-08-17T04:47:49.198Z,24.4
2018-08-17T04:48:39.551Z,24.4
2018-08-17T05:07:52.377Z,24.4
2018-08-17T05:08:55.903Z,24.4
2018-08-17T05:09:45.579Z,24.4
2018-08-17T05:10:20.577Z,24.4
2018-08-17T05:11:09.789Z,24.4
2018-08-17T05:12:00.900Z,24.4
2018-08-17T05:12:50.979Z,24.4
2018-08-17T05:13:41.337Z,24.4
2018-08-17T05:14:30.582Z,24.4
2018-08-17T05:15:20.924Z,24.4
2018-08-17T05:16:11.512Z,24.4
2018-08-17T05:17:01.350Z,24.5
2018-08-17T05:17:51.679Z,24.4
2018-08-17T05:18:41.158Z,24.5
2018-08-17T05:19:30.746Z,24.5
2018-08-17T05:20:20.833Z,24.5
2018-08-17T05:21:11.465Z,24.6
2018-08-17T05:22:01.752Z,24.5
2018-08-17T05:22:52.110Z,24.6
2018-08-17T05:23:41.872Z,24.6
2018-08-17T05:24:31.631Z,24.6
2018-08-17T05:25:21.490Z,24.6
2018-08-17T05:26:10.996Z,24.6
2018-08-17T05:27:02.414Z,24.6
2018-08-17T05:27:51.933Z,24.6
2018-08-17T05:28:41.970Z,24.6
2018-08-17T05:29:32.303Z,24.6
2018-08-17T05:30:21.867Z,24.6
2018-08-17T05:31:11.674Z,24.6
2018-08-17T05:32:02.213Z,24.6
2018-08-17T05:32:52.603Z,24.6
2018-08-17T05:33:42.643Z,24.6
2018-08-17T05:34:32.149Z,24.6
2018-08-17T05:35:22.965Z,24.6
2018-08-17T05:36:12.463Z,24.6
2018-08-17T05:37:02.132Z,24.6
2018-08-17T05:37:53.151Z,24.7
2018-08-17T05:38:43.247Z,24.7
2018-08-17T05:39:32.751Z,24.7
2018-08-17T05:40:22.826Z,24.7
2018-08-17T05:41:13.423Z,24.7
2018-08-17T05:42:03.213Z,24.8
2018-08-17T05:42:53.338Z,24.8
2018-08-17T05:43:43.612Z,24.8
2018-08-17T05:44:33.659Z,24.8
2018-08-17T05:45:23.192Z,24.8
2018-08-17T05:46:13.798Z,24.8
2018-08-17T05:47:03.606Z,24.8
2018-08-17T05:47:53.176Z,24.8
2018-08-17T05:48:43.153Z,24.8
2018-08-17T05:49:33.831Z,24.8
2018-08-17T05:50:23.127Z,24.8
2018-08-17T05:51:13.740Z,24.8
2018-08-17T05:52:03.532Z,24.8
2018-08-17T05:52:53.660Z,24.8
2018-08-17T05:53:43.992Z,24.8
2018-08-17T05:54:33.523Z,24.8
2018-08-17T05:55:23.801Z,24.8
2018-08-17T05:56:14.326Z,24.8
2018-08-17T05:57:04.727Z,24.8
2018-08-17T05:57:54.469Z,24.8
2018-08-17T05:58:43.796Z,24.8
2018-08-17T05:59:34.627Z,24.8
2018-08-17T06:00:24.672Z,24.8
2018-08-17T06:01:13.897Z,24.8
2018-08-17T06:02:04.819Z,24.8
2018-08-17T06:02:56.446Z,24.8
2018-08-17T06:03:44.630Z,24.8
2018-08-17T06:04:34.977Z,24.8
2018-08-17T06:05:24.850Z,24.8
2018-08-17T06:06:15.432Z,24.8
2018-08-17T06:07:05.196Z,24.8
2018-08-17T06:07:55.308Z,24.8
2018-08-17T06:08:45.043Z,24.8
2018-08-17T06:09:35.381Z,24.8
2018-08-17T06:10:25.705Z,24.8
2018-08-17T06:11:18.844Z,24.8
2018-08-17T06:12:05.547Z,24.8
2018-08-17T06:12:55.571Z,24.8
2018-08-17T06:13:45.940Z,24.8
2018-08-17T06:14:36.028Z,24.8
2018-08-17T06:15:26.040Z,24.8
2018-08-17T06:16:15.633Z,24.8
2018-08-17T06:17:05.908Z,24.8
2018-08-17T06:17:56.235Z,24.8
2018-08-17T06:18:45.736Z,24.8
2018-08-17T06:19:36.083Z,24.8
2018-08-17T06:20:26.163Z,24.8
2018-08-17T06:21:16.510Z,24.8
2018-08-17T06:22:06.575Z,24.8
2018-08-17T06:22:56.603Z,24.8
2018-08-17T06:23:46.140Z,24.8
2018-08-17T06:24:36.777Z,24.8
2018-08-17T06:25:26.846Z,24.8
2018-08-17T06:26:16.905Z,24.8
2018-08-17T06:27:06.406Z,24.8
2018-08-17T06:27:57.024Z,24.8
2018-08-17T06:28:47.117Z,24.8
2018-08-17T06:29:36.693Z,24.8
2018-08-17T06:30:26.713Z,24.8
2018-08-17T06:31:16.784Z,24.8
2018-08-17T06:32:07.117Z,24.8
2018-08-17T06:32:57.451Z,24.8
2018-08-17T06:33:47.241Z,24.8
2018-08-17T06:34:36.742Z,25
2018-08-17T06:35:26.536Z,27.3
2018-08-17T06:36:17.657Z,27.8
2018-08-17T06:37:07.659Z,29.9
2018-08-17T06:37:57.867Z,30.6
2018-08-17T06:38:47.385Z,30.3
2018-08-17T06:39:38.102Z,29.8
2018-08-17T06:40:28.086Z,29.4
2018-08-17T06:41:18.119Z,29.4
2018-08-17T06:42:08.021Z,29.7
2018-08-17T06:42:58.221Z,30
2018-08-17T06:43:48.039Z,30.3
2018-08-17T06:44:38.436Z,30.5
2018-08-17T06:45:28.407Z,30.6
2018-08-17T06:46:18.436Z,30.8
2018-08-17T06:47:08.222Z,30.8
2018-08-17T06:47:58.319Z,30.9
2018-08-17T06:48:48.351Z,31.1
2018-08-17T06:49:38.447Z,31.2
2018-08-17T06:50:28.478Z,31.3
2018-08-17T06:51:18.493Z,31.4
2018-08-17T06:52:09.016Z,31.5
2018-08-17T06:52:58.710Z,31.7
2018-08-17T06:53:49.044Z,31.9
2018-08-17T06:54:39.092Z,32.2
2018-08-17T06:55:28.655Z,32.4
2018-08-17T06:56:18.939Z,32.6
2018-08-17T06:57:09.861Z,32.7
2018-08-17T06:57:59.071Z,32.7
2018-08-17T06:58:49.140Z,32.8
2018-08-17T06:59:39.558Z,32.8
2018-08-17T07:00:29.103Z,32.9
2018-08-17T07:01:19.403Z,32.9
2018-08-17T07:02:09.444Z,33.1
2018-08-17T07:02:59.782Z,33.3
2018-08-17T07:03:48.997Z,33.4
2018-08-17T07:04:39.092Z,33.4
2018-08-17T07:05:29.420Z,33.4
2018-08-17T07:06:19.456Z,33.3
2018-08-17T07:07:09.270Z,33.4
2018-08-17T07:08:00.130Z,33.4
2018-08-17T07:08:52.328Z,33.4
2018-08-17T07:09:41.049Z,33.5
2018-08-17T07:10:29.778Z,33.6
2018-08-17T07:11:20.127Z,33.6
2018-08-17T07:12:10.179Z,33.6
2018-08-17T07:13:00.596Z,33.7
2018-08-17T07:13:50.374Z,33.8
2018-08-17T07:14:40.131Z,33.8
2018-08-17T07:15:30.456Z,33.9
2018-08-17T07:16:20.268Z,33.9
2018-08-17T07:17:10.919Z,34
2018-08-17T07:18:00.700Z,34.1
2018-08-17T07:18:51.019Z,34.1
2018-08-17T07:19:41.058Z,34.2
2018-08-17T07:20:30.871Z,34.3
2018-08-17T07:21:20.905Z,34.4
2018-08-17T07:22:11.240Z,34.6
2018-08-17T07:23:00.463Z,34.8
2018-08-17T07:23:51.359Z,34.8
2018-08-17T07:24:41.148Z,34.9
2018-08-17T07:25:31.056Z,34.9
2018-08-17T07:26:21.253Z,34.9
2018-08-17T07:27:11.596Z,34.9
2018-08-17T07:28:02.162Z,35.1
2018-08-17T07:28:51.436Z,35.1
2018-08-17T07:29:41.792Z,35.3
2018-08-17T07:30:31.356Z,35.4
2018-08-17T07:31:21.684Z,35.4
2018-08-17T07:32:11.976Z,35.5
2018-08-17T07:33:01.917Z,35.5
2018-08-17T07:33:52.165Z,35.6
2018-08-17T07:34:41.902Z,35.7
2018-08-17T07:35:31.688Z,35.7
2018-08-17T07:36:22.102Z,35.8
2018-08-17T07:37:11.855Z,35.8
2018-08-17T07:38:02.180Z,35.8
2018-08-17T07:38:51.671Z,36
2018-08-17T07:39:42.617Z,36.3
2018-08-17T07:40:32.693Z,36.6
2018-08-17T07:41:22.491Z,36.8
2018-08-17T07:42:12.640Z,37.1
2018-08-17T07:43:02.625Z,37.4
2018-08-17T07:43:52.708Z,37.6
2018-08-17T07:44:42.735Z,37.8
2018-08-17T07:45:33.082Z,38
2018-08-17T07:46:23.162Z,38.3
2018-08-17T07:47:13.599Z,38.4
2018-08-17T07:48:04.904Z,38.5
2018-08-17T07:48:52.775Z,38.8
2018-08-17T07:49:43.135Z,38.9
2018-08-17T07:50:33.219Z,39.2
2018-08-17T07:51:23.005Z,39.4
2018-08-17T07:52:13.635Z,39.6
2018-08-17T07:53:03.355Z,39.8
2018-08-17T07:53:53.453Z,40
2018-08-17T07:54:43.851Z,40.1
2018-08-17T07:55:33.868Z,40.3
2018-08-17T07:56:23.610Z,40.5
2018-08-17T07:57:13.661Z,40.8
2018-08-17T07:58:04.015Z,40.9
2018-08-17T07:58:54.127Z,41.1
2018-08-17T07:59:44.114Z,41.3
2018-08-17T08:00:33.648Z,41.4
2018-08-17T08:01:23.987Z,41.6
2018-08-17T08:02:14.331Z,41.8
2018-08-17T08:03:03.816Z,42
2018-08-17T08:03:53.895Z,42.2
2018-08-17T08:04:44.519Z,42.4
2018-08-17T08:05:34.369Z,42.5
2018-08-17T08:06:24.661Z,42.8
2018-08-17T08:07:14.713Z,42.9
2018-08-17T08:08:04.189Z,43.1
2018-08-17T08:08:54.564Z,43
2018-08-17T08:09:44.633Z,42.8
2018-08-17T08:10:35.439Z,42.7
2018-08-17T08:11:24.310Z,42.8
2018-08-17T08:12:15.138Z,42.9
2018-08-17T08:13:04.409Z,43.2
2018-08-17T08:13:54.946Z,43.4
2018-08-17T08:14:45.337Z,43.6
2018-08-17T08:15:35.103Z,43.7
2018-08-17T08:16:24.656Z,43.9
2018-08-17T08:17:15.529Z,44
2018-08-17T08:18:05.356Z,44.2
2018-08-17T08:18:55.407Z,44.4
2018-08-17T08:19:44.879Z,44.5
2018-08-17T08:20:36.270Z,44.8
2018-08-17T08:21:25.603Z,44.9
2018-08-17T08:22:15.649Z,45.1
2018-08-17T08:23:05.703Z,45.3
2018-08-17T08:23:55.605Z,45.4
2018-08-17T08:24:46.122Z,45.4
2018-08-17T08:25:35.626Z,45.5
2018-08-17T08:26:25.976Z,45.7
2018-08-17T08:27:15.754Z,45.9
2018-08-17T08:28:05.846Z,46
2018-08-17T08:28:56.209Z,46.2
2018-08-17T08:29:45.492Z,46.4
2018-08-17T08:30:36.566Z,46.5
2018-08-17T08:31:26.092Z,46.7
2018-08-17T08:32:16.825Z,46.9
2018-08-17T08:33:06.492Z,47
2018-08-17T08:33:56.507Z,47.2
2018-08-17T08:34:46.604Z,47.3
2018-08-17T08:35:36.427Z,47.4
2018-08-17T08:36:26.982Z,47.6
2018-08-17T08:37:16.491Z,47.8
2018-08-17T08:38:06.842Z,47.9
2018-08-17T08:38:56.909Z,48
2018-08-17T08:39:47.135Z,48.2
2018-08-17T08:40:37.308Z,48.3
2018-08-17T08:41:26.871Z,48.4
2018-08-17T08:42:17.516Z,48.6
2018-08-17T08:43:07.494Z,48.8
2018-08-17T08:43:57.557Z,48.9
2018-08-17T08:44:47.629Z,49
2018-08-17T08:45:38.452Z,49.1
2018-08-17T08:46:27.247Z,49.3
2018-08-17T08:47:17.562Z,49.4
2018-08-17T08:48:07.920Z,49.5
2018-08-17T08:48:57.939Z,49.6
2018-08-17T08:49:48.017Z,49.8
2018-08-17T08:50:37.628Z,49.9
2018-08-17T08:51:28.208Z,50.1
2018-08-17T08:52:18.298Z,50.2
2018-08-17T08:53:08.360Z,50.3
2018-08-17T08:53:57.876Z,50.4
2018-08-17T08:54:48.199Z,50.6
2018-08-17T08:55:38.295Z,50.7
2018-08-17T08:56:28.394Z,50.8
2018-08-17T08:57:18.670Z,51
2018-08-17T08:58:08.429Z,51.1
2018-08-17T08:58:58.006Z,51.2
2018-08-17T08:59:48.887Z,51.3
2018-08-17T09:00:38.943Z,51.4
2018-08-17T09:01:28.980Z,51.5
2018-08-17T09:02:18.288Z,51.6
2018-08-17T09:03:09.124Z,51.8
2018-08-17T09:04:49.324Z,52.1
2018-08-17T09:21:19.641Z,54.3
2018-08-17T09:22:04.895Z,54.5
2018-08-17T09:22:54.435Z,54.6
2018-08-17T09:23:45.258Z,54.7
2018-08-17T09:24:35.331Z,54.8
2018-08-17T09:25:25.139Z,54.9
2018-08-17T09:26:15.486Z,55
2018-08-17T09:27:05.235Z,55.1
2018-08-17T09:27:55.639Z,55.2
2018-08-17T09:28:45.331Z,55.3
2018-08-17T09:29:35.737Z,55.4
2018-08-17T09:30:25.866Z,55.5
2018-08-17T09:31:15.904Z,55.7
2018-08-17T09:32:05.389Z,55.8
2018-08-17T09:32:55.828Z,55.9
2018-08-17T09:33:45.512Z,55.9
2018-08-17T09:34:35.924Z,56
2018-08-17T09:35:26.231Z,56.1
2018-08-17T09:36:16.143Z,56.2
2018-08-17T09:37:06.137Z,56.4
2018-08-17T09:37:56.435Z,56.4
2018-08-17T09:38:46.219Z,56.5
2018-08-17T09:39:36.001Z,56.6
2018-08-17T09:40:26.612Z,56.8
2018-08-17T09:41:15.638Z,56.8
2018-08-17T09:42:06.172Z,56.9
2018-08-17T09:42:56.515Z,57
2018-08-17T09:43:45.791Z,57.1
2018-08-17T09:44:36.099Z,57.2
2018-08-17T09:45:26.729Z,57.3
2018-08-17T09:46:16.807Z,57.4
2018-08-17T09:47:07.120Z,57.4
2018-08-17T09:47:56.697Z,57.6
2018-08-17T09:48:45.911Z,57.6
2018-08-17T09:50:27.373Z,57.8
2018-08-17T09:51:16.536Z,57.9
2018-08-17T09:52:06.936Z,57.9
2018-08-17T09:52:57.589Z,58.1
2018-08-17T09:53:47.077Z,58.2
2018-08-17T09:54:36.947Z,58.3
2018-08-17T09:55:27.469Z,58.3
2018-08-17T09:56:16.956Z,58.4
2018-08-17T09:57:07.318Z,58.5
2018-08-17T09:58:47.241Z,58.7
2018-08-17T09:59:37.232Z,58.8
2018-08-17T10:00:27.856Z,58.8
2018-08-17T10:01:16.912Z,58.9
2018-08-17T10:02:07.484Z,59
2018-08-17T10:02:58.140Z,59
2018-08-17T10:03:48.504Z,59.1
2018-08-17T10:04:38.537Z,59.1
2018-08-17T10:05:27.952Z,59.3
2018-08-17T10:06:18.372Z,59.3
2018-08-17T10:07:08.175Z,59.4
2018-08-17T10:07:58.508Z,59.5
2018-08-17T10:08:48.580Z,59.6
2018-08-17T10:09:38.951Z,59.6
2018-08-17T10:10:28.772Z,59.3
2018-08-17T10:11:18.789Z,58.9
2018-08-17T10:12:08.559Z,58.7
2018-08-17T10:13:49.271Z,58.4
2018-08-17T10:14:38.729Z,58.6
2018-08-17T10:15:28.783Z,59.1
2018-08-17T10:16:19.158Z,59.5
2018-08-17T10:17:08.959Z,59.7
2018-08-17T10:17:59.376Z,59.8
2018-08-17T10:18:49.389Z,59.9
2018-08-17T10:19:39.133Z,60
2018-08-17T10:20:29.478Z,60.1
2018-08-17T10:21:24.226Z,60.1
2018-08-17T10:22:13.173Z,60.1
2018-08-17T10:22:59.705Z,59.8
2018-08-17T10:23:49.998Z,59.6
2018-08-17T10:24:39.257Z,59.3
2018-08-17T10:25:29.833Z,59
2018-08-17T10:26:19.616Z,58.9
2018-08-17T10:27:09.697Z,58.8
2018-08-17T10:28:00.362Z,58.6
2018-08-17T10:28:49.343Z,58.5
2018-08-17T10:29:40.154Z,58.4
2018-08-17T10:30:30.534Z,58.3
2018-08-17T10:31:20.069Z,58.1
2018-08-17T10:32:10.079Z,58
2018-08-17T10:33:00.212Z,57.9
2018-08-17T10:33:50.414Z,57.8
2018-08-17T10:34:40.309Z,57.7
2018-08-17T10:35:30.696Z,57.6
2018-08-17T10:36:20.983Z,57.5
2018-08-17T10:37:11.035Z,57.4
2018-08-17T10:38:00.347Z,57.3
2018-08-17T10:38:50.916Z,57.3
2018-08-17T10:39:40.738Z,57.1
2018-08-17T10:40:30.723Z,57.1
2018-08-17T10:41:20.819Z,56.9
2018-08-17T10:42:11.240Z,56.9
2018-08-17T10:43:01.535Z,56.8
2018-08-17T10:43:51.343Z,56.8
2018-08-17T10:44:40.917Z,56.6
2018-08-17T10:45:31.773Z,56.6
2018-08-17T10:46:21.800Z,56.5
2018-08-17T10:47:11.573Z,56.4
2018-08-17T10:48:01.637Z,56.4
2018-08-17T10:48:52.882Z,56.3
2018-08-17T10:49:40.725Z,56.3
2018-08-17T10:50:31.922Z,56.3
2018-08-17T10:51:21.923Z,56.2
2018-08-17T10:52:12.243Z,56.3
2018-08-17T10:53:01.473Z,56.5
2018-08-17T10:53:52.367Z,56.6
2018-08-17T10:54:42.194Z,56.6
2018-08-17T10:55:32.922Z,56.4
2018-08-17T10:56:22.689Z,56.3
2018-08-17T10:57:12.349Z,56.3
2018-08-17T10:58:02.694Z,56.4
2018-08-17T10:58:52.485Z,56.5
2018-08-17T10:59:42.781Z,56.4
2018-08-17T11:00:32.566Z,56.4
2018-08-17T11:01:22.901Z,56.3
2018-08-17T11:02:12.987Z,56.1
2018-08-17T11:03:03.093Z,56.1
2018-08-17T11:03:52.871Z,55.9
2018-08-17T11:04:43.205Z,55.9
2018-08-17T11:05:32.434Z,55.8
2018-08-17T11:06:23.331Z,55.8
2018-08-17T11:07:12.526Z,55.7
2018-08-17T11:08:03.440Z,55.6
2018-08-17T11:08:53.483Z,55.6
2018-08-17T11:09:42.752Z,55.5
2018-08-17T11:10:33.344Z,55.4
2018-08-17T11:11:23.527Z,55.3
2018-08-17T11:12:12.930Z,55.2
2018-08-17T11:13:03.521Z,55.1
2018-08-17T11:13:53.930Z,55.1
2018-08-17T11:14:43.159Z,55
2018-08-17T11:15:33.897Z,55
2018-08-17T11:16:24.077Z,55.2
2018-08-17T11:17:14.083Z,55.5
2018-08-17T11:18:04.371Z,55.8
2018-08-17T11:18:54.075Z,56.1
2018-08-17T11:19:44.102Z,56.1
2018-08-17T11:20:34.238Z,55.9
2018-08-17T11:21:24.271Z,55.6
2018-08-17T11:22:14.315Z,55.5
2018-08-17T11:23:04.555Z,55.4
2018-08-17T11:23:54.450Z,55.4
2018-08-17T11:24:44.781Z,55.4
2018-08-17T11:25:34.867Z,55.4
2018-08-17T11:26:24.681Z,55.4
2018-08-17T11:27:15.000Z,55.3
2018-08-17T11:28:03.958Z,55.3
2018-08-17T11:28:54.811Z,55.3
2018-08-17T11:29:45.187Z,55.4
2018-08-17T11:30:35.043Z,55.6
2018-08-17T11:31:24.475Z,55.6
2018-08-17T11:32:15.429Z,55.6
2018-08-17T11:33:04.898Z,55.4
2018-08-17T11:33:54.973Z,55.3
2018-08-17T11:34:45.599Z,55.2
2018-08-17T11:35:35.621Z,55.1
2018-08-17T11:36:25.649Z,55.1
2018-08-17T11:37:15.461Z,55.1
2018-08-17T11:38:04.993Z,55
2018-08-17T11:38:54.588Z,55
2018-08-17T11:39:45.140Z,55
2018-08-17T11:40:35.221Z,55
2018-08-17T11:41:24.934Z,55
2018-08-17T11:42:14.908Z,55
2018-08-17T11:43:05.135Z,55
2018-08-17T11:43:55.761Z,55
2018-08-17T11:44:45.336Z,55
2018-08-17T11:45:35.923Z,55
2018-08-17T11:46:25.458Z,54.9
2018-08-17T11:47:16.316Z,54.9
2018-08-17T11:48:05.678Z,54.8
2018-08-17T11:48:55.465Z,54.7
2018-08-17T11:49:46.244Z,54.6
2018-08-17T11:50:36.797Z,54.5
2018-08-17T11:51:26.863Z,54.4
2018-08-17T11:52:16.644Z,54.4
2018-08-17T11:53:06.494Z,54.3
2018-08-17T11:53:57.826Z,54.3
2018-08-17T11:54:46.901Z,54.2
2018-08-17T11:55:36.958Z,54.1
2018-08-17T11:56:26.736Z,54.1
2018-08-17T11:57:16.831Z,54.1
2018-08-17T11:58:06.843Z,54.1
2018-08-17T11:58:57.171Z,54.1
2018-08-17T11:59:47.290Z,54.1
2018-08-17T12:00:37.656Z,53.9
2018-08-17T12:01:27.114Z,53.9
2018-08-17T12:02:17.483Z,53.8
2018-08-17T12:03:07.273Z,53.8
2018-08-17T12:03:57.325Z,53.8
2018-08-17T12:04:47.950Z,53.8
2018-08-17T12:05:37.745Z,53.8
2018-08-17T12:06:27.845Z,53.7
2018-08-17T12:07:18.170Z,53.6
2018-08-17T12:08:09.022Z,53.8
2018-08-17T12:08:57.755Z,54.2
2018-08-17T12:09:48.375Z,54.5
2018-08-17T12:10:38.104Z,54.6
2018-08-17T12:11:28.151Z,54.4
2018-08-17T12:12:18.182Z,54.2
2018-08-17T12:13:07.699Z,53.9
2018-08-17T12:13:58.344Z,53.9
2018-08-17T12:14:48.411Z,53.9
2018-08-17T12:15:38.201Z,53.9
2018-08-17T12:16:28.353Z,53.9
2018-08-17T12:17:18.888Z,54
2018-08-17T12:18:08.651Z,54
2018-08-17T12:18:58.907Z,53.9
2018-08-17T12:19:49.036Z,53.8
2018-08-17T12:20:38.826Z,53.7
2018-08-17T12:21:29.184Z,53.6
2018-08-17T12:22:19.293Z,53.6